INDIA METEOROLOGICAL DEPARTMENT, R.M.C. NEW DELHI
Dated:25 - 6 - 2017
METARS


Agartala   
VEAT 251030Z 18006KT 6000 SCT018 SCT025 34/27 Q0998 NOSIG =
Ahmedabad  
VAAH 251030Z 18003KT 6000 SCT020 SCT025 38/23 Q0995 NOSIG=
Allahabad  
VEAB 251030Z 02008KT 6000 SCT025 FEW030CB BKN100 34/26 Q0996 NOSIG=
Amritsar   
VIAR 251030Z 18005KT 6000 FEW040 SCT100 38/22 Q0997 NOSIG=
Aurangabad 
VAAU 251000Z 21008KT 6000 FEW020 SCT030TCU 33/22 Q1000 NOSIG=
Bangalore  
VOBL 251030Z 26018KT 9999 SCT012 BKN080 29/18 Q1007 NOSIG=
Baroda     
VABO 251000Z 20008KT 6000 FEW015 SCT020 OVC070 33/27 Q0997 TEMPO 3000=
Bhopal     
VABP 251000Z 19008KT 6000 FEW025 SCT030 35/21 Q0998=
Bhubaneswar
VEBS 251030Z 30006KT 5000 HZ BKN018 FEW030CB OVC100 30/26 Q0995 NOSIG =
Chennai    
VOMM 251030Z 18009KT 7000 FEW020 36/21 Q1000 NOSIG=
Coimbatore 
VOCB 251030Z 20008G18KT 6000 -DZ FEW010 SCT015 OVC080 23/22 Q1006 NOSIG=
Colombo    
VCBI 251040Z 22011KT 9000 FEW012 BKN016 FEW018CB 28/24 Q1006 NOSIG RMK E/S/SW=
Delhi      
VIDP 251030Z 05007KT 4000 HZ FEW040 FEW040TCU SCT100 40/23 Q0997 NOSIG=
Dehradun   
VIDN 251030Z 04003KT 3000 HZ SCT025 FEWCB040 BKN060 34/24 Q0999=
Gauhati    
VEGT 251030Z 03006KT 4000 BR SCT016 FEW025CB BKN100 32/27 Q0999 NOSIG=
Gaya       
VEGY 251000Z 10013KT 5000 HZ SCT018 SCT025 BKN100 37/23 Q0996=
Gaggal     
VIGG 251000Z 25003KT 5000 HZ SCT035 FEW040CB 34/24 Q1002=
Goa        
VOGO 251030Z 24010KT 6000 FEW014 FEW022TCU BKN080 30/23 Q1002 NOSIG=
Hyderabad  
VOHS 251030Z 27007KT 6000 SCT020 SCT025 BKN100 32/26 Q1002 NOSIG=
Imphal     
VEIM 250930Z 05011KT 8000 FEW020 SCT100 30/23 Q1004 NOSIG=
Indore     
VAID 250900Z 16006KT 6000 FEW020 34/23 Q1000 NOSIG=
Jabalpur   
VAJB 251000Z 00000KT 6000 SCT025 SCT030 FEWCB035 BKN08 031/23 Q0998=
Jaipur     
VIJP 251030Z 10003KT 5000 HZ SCT035 SCT040 39/17 Q0997 NOSIG=
Khajuraho  
VEKO 250900Z 05008KT 6000 SCT025 40/21 Q0995=
Kochi      
VOCI 251030Z 01004KT 5000 HZ SCT015 BKN080 30/25 Q1005 NOSIG=
Kolkata    
VECC 251030Z 11006KT 3500 HZ SCT020 SCT100 31/26 Q0996 NOSIG=
Kozhikode  
VOCL 251030Z 34004KT 6000 FEW008 SCT015 BKN080 26/24 Q1005 NOSIG=
Lucknow    
VILK 251030Z 12014KT 4000 HZ SCT020 SCT025 FEW030CB BKN100 38/28 Q0996 TEMPO 3000 TSRA=
Ludhiana   
VILD 250900Z 22004KT 5000 HZ SCT030 38/22 Q 0998=
Madurai    
VOMD 251030Z 29016KT 8000 SCT020 BKN100 37/20 Q1003 NOSIG=
Mohanbari  
VEMN 251030Z 03007KT 6000 FEW020 FEW025CB SCT100 30/25 Q1000 NOSIG=
Mumbai     
VABB 251030Z 18006KT 2200 VCSH FEW012 SCT018 FEW030CB BKN090 26/25 Q0999 TEMPO 1500 SHRA=
Nagpur     
VANP 251030Z 28005KT 4000 HZ SCT020 FEW030CB BKN100 35/22 Q0998 TEMPO 3000 RA/TSRA=
Patna      
VEPT 251030Z 08010KT 4500 HZ FEW018 SCT025 BKN100 35/25 Q0995 NOSIG=
Raipur     
VERP 251000Z 25010KT 6000 FEW020 SCT025 31/25 Q0998 NOSIG=
Safdarjung 
VIDD 251030Z 05007KT 4000 HZ SCT040 BKN100 39/26 Q0996 NOSIG=
Surat     
VASU 251000Z 16007KT 6000 FEW010 SCT020 BKN080 28/25 Q0998=
Ranchi     
VERC 251030Z 17008KT 3500 -RA SCT015 FEW030CB BKN100 26/24 Q1001 NOSIG=
Trichy     
VOTR 251030Z 29014G24KT 6000 SCT016 BKN080 34/19 Q1002 NOSIG=
Trivandrum 
VOTV 251030Z 24004KT 4000 HZ SCT015 FEW025CB BKN080 28/24 Q1005 TEMPO 3000 -RA HZ=
Udaipur    
VAUD 251030Z 08008KT 6000 TS SCT020 FEW030 FEW 035CB BKN050 34/22 Q1000 TEMPO 3000 TSRA=
Varanasi   
VEBN 251030Z 07009KT 6000 HZ SCT025 38/24 Q0995 NOSIG=
Vizag      
VOVZ 251000Z 00000KT 6000 -DZ FEW018 OVC080 28/25 Q0997 TEMPO 4000 -RA-DZ =
Male       
VRMM 251000Z 24011KT 9999 SCT018 BKN260 31/26 Q1007 NOSIG=
Gan        
VRMG 251000Z 20006KT 9999 SCT018 BKN270 31/25 Q1008 NOSIG=
Kathmandu  
VNKT 251030Z NIL=
Dhaka      
VGHS 251000Z 17012KT 4000 HZ SCT012 BKN100 31/24 Q0998 TEMPO RA=
Colombo    
VCBI 251040Z 22011KT 9000 FEW012 BKN016 FEW018CB 28/24 Q1006 NOSIG RMK E/S/SW=
Karachi    
OPKC 250955Z 23005KT 6000 FEW020 34/23 Q0996 NOSIG=
Lahore     
OPLA 260159Z 34003KT 5000 FU NSC 29.52 31/24 RH 66 Q1000 NOSIG=
Leh        
VILH 250930Z 28004KT 6000 FEW060 CTHT 29/M10 Q1015 NOSIG RMK AC=
Sri Nagar  
VISR 251030Z 27014G24KT 6000 TS SCT025 FEW030CB BKN080 24/17 Q1011 TEMPO 22020G30KT TSRA=
Jammu      
VIJU 250930Z VRB02KT 6000 FEW030 40/20 Q997 NOSIG=
Bhuj-Rudra 
VABJ 250930Z 23005KT 6000 FEW020 SCT030 39/23 Q997 NOSIG=
Gorakhpur  
VEGK 251030Z 08007KT 6000 SCT030 FEW030TCU BKN250 34/26 Q0997 NOSIG=
Bagdogra   
VEBD 251030Z 6000 FEW015 SCT025 FEW030TCU BKN250 30/27 Q1000 NOSIG RMK TCU SW/W 30KM RETS=
Gwalior    
VIGR 250900Z 00000KT 4000 HZ SCT030 40/23 Q0996=
Pune       
VAPO 251030Z 26010G20KT 6000 SCT025 BKN090 26/22 Q1003 TEMPO 5000 -RA=
Chandigarh 
VICG 250930Z 25007KT 6000 SCT0030 38/21 Q0998 NOSIG=
Jamnagar   
VAJM 250930Z 32010KT 6000 SCT025 FEW025TCU SCT030 35/25 Q0995 NOSIG=